createdAt,value
2016-07-20T00:00:51.430Z,22.51
2016-07-20T00:01:51.410Z,22.62
2016-07-20T00:02:51.400Z,22.53
2016-07-20T00:03:51.390Z,22.53
2016-07-20T00:04:51.363Z,22.45
2016-07-20T00:05:51.350Z,22.47
2016-07-20T00:06:51.334Z,22.41
2016-07-20T00:07:51.315Z,22.39
2016-07-20T00:08:51.299Z,22.45
2016-07-20T00:09:51.284Z,22.33
2016-07-20T00:10:51.269Z,22.23
2016-07-20T00:11:51.249Z,22.3
2016-07-20T00:12:51.246Z,22.32
2016-07-20T00:13:51.217Z,22.26
2016-07-20T00:14:51.205Z,22.29
2016-07-20T00:15:51.188Z,22.2
2016-07-20T00:16:51.171Z,22.14
2016-07-20T00:17:51.155Z,22.17
2016-07-20T00:18:51.137Z,22.14
2016-07-20T00:19:51.122Z,22.15
2016-07-20T00:20:51.104Z,22.07
2016-07-20T00:21:51.088Z,22.07
2016-07-20T00:22:51.074Z,22.08
2016-07-20T00:23:51.053Z,22.06
2016-07-20T00:24:51.045Z,22.06
2016-07-20T00:25:51.023Z,22.08
2016-07-20T00:26:51.009Z,22.14
2016-07-20T00:27:50.992Z,22.04
2016-07-20T00:28:50.973Z,22.04
2016-07-20T00:29:50.956Z,22
2016-07-20T00:30:50.943Z,21.92
2016-07-20T00:31:50.929Z,21.91
2016-07-20T00:32:50.910Z,21.92
2016-07-20T00:33:50.892Z,21.93
2016-07-20T00:34:50.876Z,21.93
2016-07-20T00:35:50.862Z,21.92
2016-07-20T00:36:50.850Z,21.85
2016-07-20T00:37:50.825Z,21.83
2016-07-20T00:38:50.812Z,21.85
2016-07-20T00:39:50.792Z,21.82
2016-07-20T00:40:50.778Z,21.8
2016-07-20T00:41:50.758Z,21.77
2016-07-20T00:42:50.744Z,21.77
2016-07-20T00:43:50.729Z,21.75
2016-07-20T00:44:50.711Z,21.69
2016-07-20T00:45:50.695Z,21.75
2016-07-20T00:46:50.675Z,21.73
2016-07-20T00:47:50.661Z,21.72
2016-07-20T00:48:50.644Z,21.73
2016-07-20T00:49:50.624Z,21.7
2016-07-20T00:50:50.611Z,21.67
2016-07-20T00:51:51.284Z,21.69
2016-07-20T00:52:50.576Z,21.66
2016-07-20T00:53:50.569Z,21.66
2016-07-20T00:54:50.543Z,21.67
2016-07-20T00:55:50.525Z,21.67
2016-07-20T00:56:50.505Z,21.69
2016-07-20T00:57:50.495Z,21.61
2016-07-20T00:58:50.475Z,21.57
2016-07-20T00:59:50.462Z,21.54
2016-07-20T01:00:50.442Z,21.58
2016-07-20T01:01:50.423Z,21.57
2016-07-20T01:02:50.409Z,21.54
2016-07-20T01:03:50.392Z,21.46
2016-07-20T01:04:50.372Z,21.54
2016-07-20T01:05:50.359Z,21.52
2016-07-20T01:06:50.340Z,21.45
2016-07-20T01:07:50.324Z,21.51
2016-07-20T01:08:50.307Z,21.58
2016-07-20T01:09:50.288Z,21.52
2016-07-20T01:10:50.270Z,21.45
2016-07-20T01:11:50.257Z,21.46
2016-07-20T01:12:50.238Z,21.42
2016-07-20T01:13:50.225Z,21.39
2016-07-20T01:14:50.207Z,21.48
2016-07-20T01:15:50.187Z,21.4
2016-07-20T01:16:50.175Z,21.36
2016-07-20T01:17:50.154Z,21.36
2016-07-20T01:18:50.136Z,21.36
2016-07-20T01:19:50.122Z,21.43
2016-07-20T01:20:50.102Z,21.37
2016-07-20T01:21:50.782Z,21.25
2016-07-20T01:22:50.069Z,21.27
2016-07-20T01:23:50.051Z,21.3
2016-07-20T01:24:50.035Z,21.27
2016-07-20T01:25:50.015Z,21.25
2016-07-20T01:26:50.002Z,21.22
2016-07-20T01:27:49.981Z,21.24
2016-07-20T01:28:49.970Z,21.21
2016-07-20T01:29:49.949Z,21.22
2016-07-20T01:30:49.931Z,21.21
2016-07-20T01:31:49.918Z,21.14
2016-07-20T01:32:49.897Z,21.14
2016-07-20T01:33:49.884Z,21.14
2016-07-20T01:34:49.865Z,21.07
2016-07-20T01:35:49.847Z,21.11
2016-07-20T01:36:49.832Z,21.06
2016-07-20T01:37:49.814Z,21.09
2016-07-20T01:38:49.796Z,21
2016-07-20T01:39:49.779Z,21.03
2016-07-20T01:40:49.760Z,21
2016-07-20T01:41:49.745Z,21.03
2016-07-20T01:42:49.727Z,21.11
2016-07-20T01:43:49.711Z,21.02
2016-07-20T01:44:49.692Z,20.99
2016-07-20T01:45:49.678Z,20.96
2016-07-20T01:46:49.661Z,20.87
2016-07-20T01:47:49.640Z,20.9
2016-07-20T01:48:49.625Z,20.93
2016-07-20T01:49:49.606Z,20.88
2016-07-20T01:50:49.590Z,20.95
2016-07-20T01:51:49.578Z,20.9
2016-07-20T01:52:49.556Z,20.85
2016-07-20T01:53:50.228Z,20.85
2016-07-20T01:54:49.522Z,20.81
2016-07-20T01:55:49.511Z,20.78
2016-07-20T01:56:49.484Z,20.87
2016-07-20T01:57:49.470Z,20.87
2016-07-20T01:58:49.452Z,20.72
2016-07-20T01:59:49.431Z,20.81
2016-07-20T02:00:49.430Z,20.8
2016-07-20T02:01:49.403Z,20.74
2016-07-20T02:02:49.381Z,20.7
2016-07-20T02:03:49.361Z,20.75
2016-07-20T02:04:49.343Z,20.72
2016-07-20T02:05:49.329Z,20.77
2016-07-20T02:06:49.310Z,20.75
2016-07-20T02:07:49.296Z,20.7
2016-07-20T02:08:49.277Z,20.74
2016-07-20T02:09:49.257Z,20.72
2016-07-20T02:10:49.250Z,20.66
2016-07-20T02:11:49.223Z,20.67
2016-07-20T02:12:49.207Z,20.66
2016-07-20T02:13:49.189Z,20.6
2016-07-20T02:14:49.169Z,20.59
2016-07-20T02:15:49.156Z,20.6
2016-07-20T02:16:49.134Z,20.58
2016-07-20T02:17:49.118Z,20.56
2016-07-20T02:18:49.099Z,20.5
2016-07-20T02:19:49.086Z,20.52
2016-07-20T02:20:49.069Z,20.59
2016-07-20T02:21:49.047Z,20.52
2016-07-20T02:22:49.032Z,20.52
2016-07-20T02:23:49.014Z,20.52
2016-07-20T02:24:48.993Z,20.56
2016-07-20T02:25:48.980Z,20.51
2016-07-20T02:26:48.964Z,20.55
2016-07-20T02:27:48.941Z,20.58
2016-07-20T02:28:48.926Z,20.51
2016-07-20T02:29:48.909Z,20.52
2016-07-20T02:30:48.890Z,20.51
2016-07-20T02:31:48.871Z,20.52
2016-07-20T02:32:48.854Z,20.48
2016-07-20T02:33:48.838Z,20.4
2016-07-20T02:34:48.817Z,20.47
2016-07-20T02:35:48.806Z,20.52
2016-07-20T02:36:48.790Z,20.43
2016-07-20T02:37:48.771Z,20.43
2016-07-20T02:38:48.749Z,20.39
2016-07-20T02:39:48.730Z,20.41
2016-07-20T02:40:48.712Z,20.39
2016-07-20T02:41:48.696Z,20.4
2016-07-20T02:42:48.675Z,20.41
2016-07-20T02:43:48.661Z,20.36
2016-07-20T02:44:48.641Z,20.32
2016-07-20T02:45:48.622Z,20.34
2016-07-20T02:46:48.607Z,20.37
2016-07-20T02:47:48.587Z,20.37
2016-07-20T02:48:48.570Z,20.4
2016-07-20T02:49:48.551Z,20.31
2016-07-20T02:50:48.534Z,20.31
2016-07-20T02:51:48.530Z,20.28
2016-07-20T02:52:48.499Z,20.26
2016-07-20T02:53:48.483Z,20.37
2016-07-20T02:54:48.464Z,20.31
2016-07-20T02:55:48.446Z,20.32
2016-07-20T02:56:48.429Z,20.26
2016-07-20T02:57:48.414Z,20.26
2016-07-20T02:58:48.394Z,20.21
2016-07-20T02:59:48.374Z,20.16
2016-07-20T03:00:48.358Z,20.22
2016-07-20T03:01:48.339Z,20.26
2016-07-20T03:02:48.319Z,20.19
2016-07-20T03:03:48.305Z,20.19
2016-07-20T03:04:48.287Z,20.18
2016-07-20T03:05:48.267Z,20.14
2016-07-20T03:06:48.251Z,20.19
2016-07-20T03:07:48.229Z,20.18
2016-07-20T03:08:48.215Z,20.19
2016-07-20T03:09:48.197Z,20.14
2016-07-20T03:10:48.191Z,20.19
2016-07-20T03:11:48.160Z,20.11
2016-07-20T03:12:48.140Z,20.14
2016-07-20T03:13:48.124Z,20.22
2016-07-20T03:14:48.105Z,20.14
2016-07-20T03:15:48.087Z,20.16
2016-07-20T03:16:48.070Z,20.14
2016-07-20T03:17:48.050Z,20.11
2016-07-20T03:18:48.034Z,20.14
2016-07-20T03:19:48.018Z,20.04
2016-07-20T03:20:48.001Z,20.02
2016-07-20T03:21:47.980Z,20.09
2016-07-20T03:22:47.967Z,20.06
2016-07-20T03:23:47.944Z,20.04
2016-07-20T03:24:47.927Z,20.1
2016-07-20T03:25:47.909Z,20.09
2016-07-20T03:26:47.889Z,20.06
2016-07-20T03:27:47.875Z,20.09
2016-07-20T03:28:47.856Z,20.07
2016-07-20T03:29:47.836Z,20.06
2016-07-20T03:30:47.817Z,20.06
2016-07-20T03:31:47.802Z,20.03
2016-07-20T03:32:47.785Z,20.13
2016-07-20T03:33:47.763Z,20.02
2016-07-20T03:34:47.747Z,20.09
2016-07-20T03:35:47.726Z,20.1
2016-07-20T03:36:47.708Z,20.07
2016-07-20T03:37:47.698Z,20.02
2016-07-20T03:38:47.675Z,20.06
2016-07-20T03:39:47.655Z,20.03
2016-07-20T03:40:47.639Z,20.1
2016-07-20T03:41:47.619Z,20.04
2016-07-20T03:42:47.601Z,20.04
2016-07-20T03:43:47.586Z,20.07
2016-07-20T03:44:47.562Z,20.09
2016-07-20T03:45:47.550Z,20.09
2016-07-20T03:46:47.529Z,20.09
2016-07-20T03:47:47.510Z,20.03
2016-07-20T03:48:47.504Z,20.06
2016-07-20T03:49:47.477Z,20.09
2016-07-20T03:50:47.458Z,20.07
2016-07-20T03:51:47.440Z,20.06
2016-07-20T03:52:47.419Z,20.02
2016-07-20T03:53:47.404Z,20.09
2016-07-20T03:54:47.386Z,20.11
2016-07-20T03:55:47.367Z,20.09
2016-07-20T03:56:47.350Z,20.18
2016-07-20T03:57:48.023Z,20.04
2016-07-20T03:58:47.313Z,20.14
2016-07-20T03:59:47.296Z,20.19
2016-07-20T04:00:47.276Z,20.03
2016-07-20T04:01:47.263Z,20.18
2016-07-20T04:02:47.248Z,20.18
2016-07-20T04:03:47.223Z,20.13
2016-07-20T04:04:47.206Z,20.18
2016-07-20T04:05:47.184Z,20.19
2016-07-20T04:06:47.170Z,20.19
2016-07-20T04:07:47.149Z,20.19
2016-07-20T04:08:47.134Z,20.19
2016-07-20T04:09:47.138Z,20.21
2016-07-20T04:10:47.096Z,20.18
2016-07-20T04:11:47.082Z,20.18
2016-07-20T04:12:47.063Z,20.22
2016-07-20T04:13:47.043Z,20.14
2016-07-20T04:14:47.027Z,20.19
2016-07-20T04:15:47.008Z,20.18
2016-07-20T04:16:46.994Z,20.18
2016-07-20T04:17:46.975Z,20.19
2016-07-20T04:18:46.956Z,20.18
2016-07-20T04:19:46.939Z,20.19
2016-07-20T04:20:46.920Z,20.26
2016-07-20T04:21:46.903Z,20.25
2016-07-20T04:22:46.885Z,20.25
2016-07-20T04:23:46.870Z,20.29
2016-07-20T04:24:46.851Z,20.29
2016-07-20T04:25:46.830Z,20.28
2016-07-20T04:26:46.816Z,20.26
2016-07-20T04:27:46.797Z,20.26
2016-07-20T04:28:46.781Z,20.28
2016-07-20T04:29:46.763Z,20.34
2016-07-20T04:30:46.743Z,20.29
2016-07-20T04:31:46.727Z,20.34
2016-07-20T04:32:46.708Z,20.4
2016-07-20T04:33:46.693Z,20.34
2016-07-20T04:34:46.675Z,20.41
2016-07-20T04:35:46.657Z,20.41
2016-07-20T04:36:46.637Z,20.36
2016-07-20T04:37:46.620Z,20.43
2016-07-20T04:38:46.605Z,20.5
2016-07-20T04:39:46.587Z,20.41
2016-07-20T04:40:46.568Z,20.48
2016-07-20T04:41:46.556Z,20.55
2016-07-20T04:42:46.531Z,20.48
2016-07-20T04:43:46.516Z,20.44
2016-07-20T04:44:46.498Z,20.48
2016-07-20T04:45:46.479Z,20.44
2016-07-20T04:46:46.467Z,20.41
2016-07-20T04:47:46.443Z,20.52
2016-07-20T04:48:46.428Z,20.51
2016-07-20T04:49:46.409Z,20.55
2016-07-20T04:50:46.394Z,20.55
2016-07-20T04:51:46.537Z,20.66
2016-07-20T04:52:46.358Z,20.62
2016-07-20T04:53:46.338Z,20.74
2016-07-20T04:54:46.445Z,20.66
2016-07-20T04:55:46.306Z,20.67
2016-07-20T04:56:46.285Z,20.67
2016-07-20T04:57:46.272Z,20.7
2016-07-20T04:58:46.255Z,20.72
2016-07-20T04:59:46.356Z,20.7
2016-07-20T05:00:46.222Z,20.81
2016-07-20T05:01:46.208Z,20.81
2016-07-20T05:02:46.186Z,20.88
2016-07-20T05:03:46.167Z,20.92
2016-07-20T05:04:46.404Z,20.88
2016-07-20T05:05:46.134Z,20.87
2016-07-20T05:06:46.115Z,20.95
2016-07-20T05:07:46.100Z,21
2016-07-20T05:08:46.771Z,21.06
2016-07-20T05:09:46.066Z,21.03
2016-07-20T05:10:46.048Z,21.09
2016-07-20T05:11:46.028Z,21.07
2016-07-20T05:12:46.015Z,21.12
2016-07-20T05:13:45.994Z,21.17
2016-07-20T05:14:45.981Z,21.18
2016-07-20T05:15:45.963Z,21.24
2016-07-20T05:16:45.944Z,21.36
2016-07-20T05:17:45.930Z,21.37
2016-07-20T05:18:45.930Z,21.39
2016-07-20T05:19:45.893Z,21.35
2016-07-20T05:20:45.879Z,21.5
2016-07-20T05:21:45.860Z,21.52
2016-07-20T05:22:46.543Z,21.6
2016-07-20T05:23:45.836Z,21.66
2016-07-20T05:24:45.811Z,21.67
2016-07-20T05:25:45.796Z,21.69
2016-07-20T05:26:45.777Z,21.69
2016-07-20T05:27:45.763Z,21.72
2016-07-20T05:28:45.744Z,21.83
2016-07-20T05:29:45.733Z,21.82
2016-07-20T05:30:45.714Z,21.93
2016-07-20T05:31:45.712Z,21.93
2016-07-20T05:32:45.700Z,22
2016-07-20T05:33:45.756Z,22.06
2016-07-20T05:34:45.649Z,22.14
2016-07-20T05:35:45.633Z,22.18
2016-07-20T05:36:45.628Z,22.26
2016-07-20T05:37:45.698Z,22.38
2016-07-20T05:38:45.586Z,22.43
2016-07-20T05:39:45.569Z,22.48
2016-07-20T05:40:45.599Z,22.47
2016-07-20T05:41:45.534Z,22.62
2016-07-20T05:42:45.522Z,22.59
2016-07-20T05:43:45.507Z,22.7
2016-07-20T05:44:45.502Z,22.78
2016-07-20T05:45:45.526Z,22.93
2016-07-20T05:46:45.460Z,23.05
2016-07-20T05:47:45.448Z,23.15
2016-07-20T05:48:45.643Z,23.37
2016-07-20T05:49:46.391Z,23.54
2016-07-20T05:50:45.402Z,23.59
2016-07-20T05:51:45.386Z,23.77
2016-07-20T05:52:45.374Z,23.81
2016-07-20T05:53:45.358Z,23.99
2016-07-20T05:54:45.342Z,24.13
2016-07-20T05:55:45.366Z,24.28
2016-07-20T05:56:45.399Z,24.35
2016-07-20T05:57:45.304Z,24.45
2016-07-20T05:58:46.001Z,24.58
2016-07-20T05:59:45.272Z,24.65
2016-07-20T06:00:45.261Z,24.85
2016-07-20T06:01:45.255Z,24.92
2016-07-20T06:02:45.231Z,24.99
2016-07-20T06:03:45.473Z,25.22
2016-07-20T06:04:45.318Z,25.26
2016-07-20T06:05:45.191Z,25.4
2016-07-20T06:06:45.180Z,25.43
2016-07-20T06:07:45.163Z,25.55
2016-07-20T06:08:46.335Z,25.62
2016-07-20T06:09:45.143Z,25.66
2016-07-20T06:10:45.131Z,25.72
2016-07-20T06:11:45.121Z,25.84
2016-07-20T06:12:45.100Z,25.93
2016-07-20T06:13:45.090Z,25.96
2016-07-20T06:14:45.074Z,26.09
2016-07-20T06:15:45.067Z,26.19
2016-07-20T06:16:45.053Z,26.26
2016-07-20T06:17:45.039Z,26.31
2016-07-20T06:18:45.031Z,26.4
2016-07-20T06:19:45.017Z,26.59
2016-07-20T06:20:45.010Z,26.6
2016-07-20T06:21:44.995Z,26.62
2016-07-20T06:22:44.994Z,26.75
2016-07-20T06:23:44.972Z,26.75
2016-07-20T06:24:44.964Z,26.85
2016-07-20T06:25:44.957Z,26.96
2016-07-20T06:26:44.938Z,27.12
2016-07-20T06:27:44.931Z,27.18
2016-07-20T06:28:44.921Z,27.25
2016-07-20T06:29:44.907Z,27.21
2016-07-20T06:30:44.955Z,27.33
2016-07-20T06:31:44.914Z,27.36
2016-07-20T06:32:44.901Z,27.54
2016-07-20T06:33:44.891Z,27.59
2016-07-20T06:34:44.859Z,27.68
2016-07-20T06:35:44.872Z,27.8
2016-07-20T06:36:44.965Z,27.82
2016-07-20T06:37:44.834Z,27.87
2016-07-20T06:38:44.833Z,27.93
2016-07-20T06:39:44.810Z,28.15
2016-07-20T06:40:44.804Z,28.15
2016-07-20T06:41:44.792Z,28.41
2016-07-20T06:42:45.500Z,28.42
2016-07-20T06:43:44.957Z,28.49
2016-07-20T06:44:44.818Z,28.7
2016-07-20T06:45:44.813Z,28.69
2016-07-20T06:46:44.763Z,28.76
2016-07-20T06:47:44.744Z,28.93
2016-07-20T06:48:44.735Z,28.96
2016-07-20T06:49:44.732Z,29.07
2016-07-20T06:50:45.549Z,29.17
2016-07-20T06:52:45.089Z,29.14
2016-07-20T06:53:44.702Z,29.22
2016-07-20T06:54:44.803Z,29.35
2016-07-20T06:55:45.051Z,29.45
2016-07-20T06:56:44.677Z,29.53
2016-07-20T06:57:44.707Z,29.66
2016-07-20T06:58:44.712Z,29.72
2016-07-20T06:59:44.652Z,29.75
2016-07-20T07:00:44.649Z,29.81
2016-07-20T07:01:44.638Z,29.9
2016-07-20T07:02:44.667Z,30.02
2016-07-20T07:03:44.765Z,30.16
2016-07-20T07:04:44.940Z,30.21
2016-07-20T07:05:44.621Z,30.25
2016-07-20T07:06:44.627Z,30.39
2016-07-20T07:07:44.602Z,30.47
2016-07-20T07:08:44.646Z,30.57
2016-07-20T07:09:45.468Z,30.62
2016-07-20T07:10:44.580Z,30.61
2016-07-20T07:11:44.636Z,30.69
2016-07-20T07:12:44.583Z,30.75
2016-07-20T07:13:44.844Z,30.73
2016-07-20T07:14:44.921Z,30.88
2016-07-20T07:15:45.996Z,30.9
2016-07-20T07:16:45.859Z,30.88
2016-07-20T07:17:45.335Z,30.88
2016-07-20T07:18:44.872Z,30.99
2016-07-20T07:19:45.366Z,31.05
2016-07-20T07:20:45.017Z,31.03
2016-07-20T07:21:44.523Z,31.07
2016-07-20T07:22:44.522Z,31.09
2016-07-20T07:23:45.395Z,31.07
2016-07-20T07:24:44.519Z,31.21
2016-07-20T07:25:44.555Z,31.4
2016-07-20T07:26:44.897Z,31.56
2016-07-20T07:27:44.486Z,31.52
2016-07-20T07:28:44.544Z,31.65
2016-07-20T07:29:44.478Z,31.69
2016-07-20T07:30:44.572Z,31.74
2016-07-20T07:31:44.468Z,31.84
2016-07-20T07:32:44.463Z,31.77
2016-07-20T07:33:44.708Z,31.77
2016-07-20T07:34:44.454Z,31.81
2016-07-20T07:35:44.454Z,31.85
2016-07-20T07:36:44.449Z,31.84
2016-07-20T07:37:44.520Z,31.87
2016-07-20T07:38:44.433Z,32.01
2016-07-20T07:39:45.601Z,32.08
2016-07-20T07:40:45.853Z,32.04
2016-07-20T07:41:44.822Z,32.11
2016-07-20T07:42:44.424Z,32.14
2016-07-20T07:43:44.572Z,32.19
2016-07-20T07:44:44.453Z,32.26
2016-07-20T07:45:44.404Z,32.33
2016-07-20T07:46:44.475Z,32.48
2016-07-20T07:47:44.396Z,32.51
2016-07-20T07:48:44.479Z,32.55
2016-07-20T07:49:44.434Z,32.68
2016-07-20T07:50:44.400Z,32.82
2016-07-20T07:51:44.376Z,32.71
2016-07-20T07:52:44.370Z,32.93
2016-07-20T07:53:44.390Z,33.04
2016-07-20T07:54:44.372Z,33.23
2016-07-20T07:55:44.372Z,33.32
2016-07-20T07:56:44.375Z,33.59
2016-07-20T07:57:44.353Z,33.52
2016-07-20T07:58:44.383Z,33.69
2016-07-20T07:59:44.391Z,33.69
2016-07-20T08:00:44.353Z,33.81
2016-07-20T08:01:44.347Z,33.94
2016-07-20T08:02:44.518Z,33.79
2016-07-20T08:03:44.695Z,33.86
2016-07-20T08:04:44.403Z,33.94
2016-07-20T08:05:44.328Z,34.01
2016-07-20T08:06:44.328Z,34.08
2016-07-20T08:07:44.327Z,34.14
2016-07-20T08:08:44.490Z,34.36
2016-07-20T08:09:44.470Z,34.47
2016-07-20T08:10:44.481Z,34.57
2016-07-20T08:11:44.463Z,34.71
2016-07-20T08:12:44.313Z,34.6
2016-07-20T08:13:44.320Z,34.7
2016-07-20T08:14:44.448Z,34.71
2016-07-20T08:15:44.338Z,34.8
2016-07-20T08:16:44.346Z,34.73
2016-07-20T08:17:44.922Z,34.88
2016-07-20T08:18:44.897Z,34.92
2016-07-20T08:19:44.301Z,35.08
2016-07-20T08:20:45.511Z,35.12
2016-07-20T08:21:44.296Z,35.12
2016-07-20T08:22:44.294Z,35.07
2016-07-20T08:23:44.295Z,35.11
2016-07-20T08:24:45.331Z,35.08
2016-07-20T08:25:44.423Z,35.11
2016-07-20T08:26:44.633Z,35.05
2016-07-20T08:27:44.707Z,35.07
2016-07-20T08:28:44.306Z,34.99
2016-07-20T08:29:44.977Z,34.89
2016-07-20T08:30:44.301Z,34.83
2016-07-20T08:31:44.479Z,34.86
2016-07-20T08:32:44.282Z,34.85
2016-07-20T08:33:44.807Z,34.85
2016-07-20T08:34:44.285Z,34.85
2016-07-20T08:35:45.233Z,34.93
2016-07-20T08:36:44.283Z,34.99
2016-07-20T08:37:45.301Z,35.02
2016-07-20T08:38:46.492Z,35.24
2016-07-20T08:39:44.301Z,35.31
2016-07-20T08:40:44.450Z,35.48
2016-07-20T08:41:44.879Z,35.56
2016-07-20T08:42:45.607Z,35.53
2016-07-20T08:43:46.073Z,35.78
2016-07-20T08:44:44.890Z,35.82
2016-07-20T08:45:44.647Z,35.92
2016-07-20T08:46:44.277Z,36
2016-07-20T08:47:44.612Z,36.04
2016-07-20T08:48:44.380Z,36.08
2016-07-20T08:49:44.600Z,36.21
2016-07-20T08:50:45.283Z,36.18
2016-07-20T08:51:44.452Z,36.35
2016-07-20T08:52:46.138Z,36.42
2016-07-20T08:53:44.268Z,36.4
2016-07-20T08:54:44.697Z,36.45
2016-07-20T08:55:45.262Z,36.62
2016-07-20T08:56:44.293Z,36.65
2016-07-20T08:57:44.366Z,36.72
2016-07-20T08:58:45.097Z,36.86
2016-07-20T08:59:44.489Z,36.86
2016-07-20T09:00:44.395Z,36.89
2016-07-20T09:01:44.507Z,36.95
2016-07-20T09:02:44.603Z,36.84
2016-07-20T09:03:44.288Z,36.84
2016-07-20T09:04:44.275Z,36.81
2016-07-20T09:05:44.277Z,36.83
2016-07-20T09:06:44.818Z,36.93
2016-07-20T09:07:44.278Z,36.98
2016-07-20T09:08:45.035Z,36.95
2016-07-20T09:09:44.280Z,37.1
2016-07-20T09:10:44.345Z,37.1
2016-07-20T09:11:44.280Z,37.1
2016-07-20T09:12:44.285Z,37.02
2016-07-20T09:13:44.697Z,37.03
2016-07-20T09:14:44.758Z,37.02
2016-07-20T09:15:44.286Z,36.95
2016-07-20T09:16:44.719Z,37.06
2016-07-20T09:17:44.288Z,37.08
2016-07-20T09:18:44.414Z,37.1
2016-07-20T09:19:44.376Z,37.03
2016-07-20T09:20:44.343Z,37.11
2016-07-20T09:21:44.994Z,37.21
2016-07-20T09:22:44.610Z,37.15
2016-07-20T09:23:45.169Z,37.2
2016-07-20T09:24:44.763Z,37.08
2016-07-20T09:25:45.050Z,37.14
2016-07-20T09:26:44.650Z,37.2
2016-07-20T09:27:44.351Z,37.33
2016-07-20T09:28:44.596Z,37.32
2016-07-20T09:29:44.388Z,37.47
2016-07-20T09:30:45.150Z,37.47
2016-07-20T09:31:45.536Z,37.59
2016-07-20T09:32:45.554Z,37.58
2016-07-20T09:33:45.448Z,37.58
2016-07-20T09:34:44.848Z,37.56
2016-07-20T09:35:46.301Z,37.64
2016-07-20T09:36:45.592Z,37.7
2016-07-20T09:37:45.208Z,37.92
2016-07-20T09:38:45.735Z,37.96
2016-07-20T09:39:46.483Z,37.99
2016-07-20T09:40:44.319Z,38.02
2016-07-20T09:41:44.322Z,37.97
2016-07-20T09:42:44.349Z,37.83
2016-07-20T09:43:44.383Z,37.89
2016-07-20T09:44:44.329Z,37.97
2016-07-20T09:45:44.360Z,38.15
2016-07-20T09:46:44.854Z,38.26
2016-07-20T09:47:44.627Z,38.36
2016-07-20T09:48:44.337Z,38.4
2016-07-20T09:49:45.042Z,38.3
2016-07-20T09:50:45.031Z,38.31
2016-07-20T09:51:44.343Z,38.39
2016-07-20T09:52:44.811Z,38.5
2016-07-20T09:53:45.036Z,38.6
2016-07-20T09:54:44.400Z,38.77
2016-07-20T09:55:45.115Z,38.82
2016-07-20T09:56:44.412Z,38.89
2016-07-20T09:57:44.358Z,38.99
2016-07-20T09:58:44.428Z,39.26
2016-07-20T09:59:44.371Z,39.22
2016-07-20T10:00:44.493Z,39.36
2016-07-20T10:01:44.486Z,39.46
2016-07-20T10:02:45.007Z,39.52
2016-07-20T10:03:44.847Z,39.67
2016-07-20T10:04:45.710Z,39.8
2016-07-20T10:05:44.908Z,39.97
2016-07-20T10:06:45.554Z,39.93
2016-07-20T10:07:45.256Z,39.92
2016-07-20T10:08:44.401Z,39.89
2016-07-20T10:09:44.618Z,39.86
2016-07-20T10:10:44.487Z,39.92
2016-07-20T10:11:44.592Z,40.09
2016-07-20T10:12:44.442Z,40.06
2016-07-20T10:13:45.485Z,40.11
2016-07-20T10:14:44.793Z,40.02
2016-07-20T10:15:45.621Z,40.24
2016-07-20T10:16:44.419Z,40.34
2016-07-20T10:17:44.430Z,40.34
2016-07-20T10:18:44.425Z,40.24
2016-07-20T10:19:45.225Z,40.21
2016-07-20T10:20:44.620Z,40.27
2016-07-20T10:21:44.438Z,40.61
2016-07-20T10:22:44.596Z,40.59
2016-07-20T10:23:44.582Z,40.68
2016-07-20T10:24:45.158Z,40.61
2016-07-20T10:25:44.451Z,40.62
2016-07-20T10:26:45.105Z,40.58
2016-07-20T10:27:44.673Z,40.59
2016-07-20T10:28:45.472Z,40.61
2016-07-20T10:29:45.178Z,40.44
2016-07-20T10:30:44.862Z,40.49
2016-07-20T10:31:44.535Z,40.43
2016-07-20T10:32:44.479Z,40.44
2016-07-20T10:33:44.755Z,40.3
2016-07-20T10:34:44.550Z,40.27
2016-07-20T10:35:44.492Z,40.18
2016-07-20T10:36:45.556Z,40.02
2016-07-20T10:37:44.790Z,39.99
2016-07-20T10:38:45.039Z,39.85
2016-07-20T10:39:44.498Z,39.65
2016-07-20T10:40:44.945Z,39.63
2016-07-20T10:41:44.561Z,39.62
2016-07-20T10:42:44.560Z,39.68
2016-07-20T10:43:44.655Z,39.87
2016-07-20T10:44:44.515Z,39.93
2016-07-20T10:45:44.745Z,39.93
2016-07-20T10:46:44.516Z,40.06
2016-07-20T10:47:44.518Z,40.18
2016-07-20T10:48:44.673Z,40.18
2016-07-20T10:49:45.399Z,40.26
2016-07-20T10:50:44.914Z,40.44
2016-07-20T10:51:44.618Z,40.51
2016-07-20T10:52:44.664Z,40.69
2016-07-20T10:53:44.696Z,40.84
2016-07-20T10:54:44.999Z,40.95
2016-07-20T10:55:44.640Z,40.92
2016-07-20T10:56:45.092Z,41.09
2016-07-20T10:57:44.544Z,41.28
2016-07-20T10:58:44.562Z,41.43
2016-07-20T10:59:44.556Z,41.6
2016-07-20T11:00:44.570Z,41.63
2016-07-20T11:01:44.559Z,41.57
2016-07-20T11:02:44.571Z,41.4
2016-07-20T11:03:44.567Z,41.31
2016-07-20T11:04:45.278Z,41.28
2016-07-20T11:05:44.871Z,41.37
2016-07-20T11:06:44.654Z,41.43
2016-07-20T11:07:45.481Z,41.55
2016-07-20T11:08:44.922Z,41.57
2016-07-20T11:09:44.595Z,41.6
2016-07-20T11:10:45.439Z,41.68
2016-07-20T11:11:44.919Z,41.83
2016-07-20T11:12:44.619Z,41.88
2016-07-20T11:13:45.042Z,42.01
2016-07-20T11:14:44.651Z,42.17
2016-07-20T11:15:45.537Z,42.2
2016-07-20T11:16:45.399Z,42.2
2016-07-20T11:17:46.083Z,42.32
2016-07-20T11:18:45.900Z,42.38
2016-07-20T11:19:45.119Z,42.32
2016-07-20T11:20:45.665Z,42.33
2016-07-20T11:21:45.981Z,42.35
2016-07-20T11:22:44.657Z,42.38
2016-07-20T11:23:45.287Z,42.25
2016-07-20T11:24:45.929Z,42.31
2016-07-20T11:25:45.644Z,42.41
2016-07-20T11:26:44.738Z,42.58
2016-07-20T11:27:44.956Z,42.69
2016-07-20T11:28:44.781Z,42.55
2016-07-20T11:29:45.573Z,42.44
2016-07-20T11:30:44.879Z,42.35
2016-07-20T11:31:44.917Z,42.2
2016-07-20T11:32:44.711Z,42.09
2016-07-20T11:33:44.857Z,42.07
2016-07-20T11:34:46.009Z,42.04
2016-07-20T11:35:46.706Z,41.94
2016-07-20T11:36:45.996Z,42.06
2016-07-20T11:37:46.903Z,42.17
2016-07-20T11:38:45.565Z,42.36
2016-07-20T11:39:45.782Z,42.35
2016-07-20T11:40:45.274Z,42.33
2016-07-20T11:41:45.717Z,42.35
2016-07-20T11:42:46.269Z,42.36
2016-07-20T11:43:45.099Z,42.35
2016-07-20T11:44:45.346Z,42.21
2016-07-20T11:45:45.747Z,42.06
2016-07-20T11:46:45.106Z,41.87
2016-07-20T11:47:45.177Z,41.82
2016-07-20T11:48:45.698Z,41.82
2016-07-20T11:49:46.853Z,41.91
2016-07-20T11:50:45.454Z,41.92
2016-07-20T11:51:44.974Z,41.95
2016-07-20T11:52:45.410Z,42.07
2016-07-20T11:53:45.981Z,42.06
2016-07-20T11:54:45.490Z,42.04
2016-07-20T11:55:45.438Z,42.06
2016-07-20T11:56:45.485Z,42.09
2016-07-20T11:57:46.227Z,42.17
2016-07-20T11:58:45.101Z,42.35
2016-07-20T11:59:45.165Z,42.51
2016-07-20T12:00:45.253Z,42.6
2016-07-20T12:01:45.614Z,42.58
2016-07-20T12:02:45.552Z,42.6
2016-07-20T12:03:45.134Z,42.67
2016-07-20T12:04:45.058Z,42.79
2016-07-20T12:05:45.190Z,42.88
2016-07-20T12:06:44.881Z,42.82
2016-07-20T12:07:45.580Z,42.88
2016-07-20T12:08:45.000Z,42.69
2016-07-20T12:09:44.913Z,42.66
2016-07-20T12:10:44.913Z,42.7
2016-07-20T12:11:44.934Z,42.74
2016-07-20T12:12:44.927Z,42.72
2016-07-20T12:13:44.920Z,42.73
2016-07-20T12:14:44.929Z,42.84
2016-07-20T12:15:45.278Z,42.95
2016-07-20T12:16:45.319Z,43.08
2016-07-20T12:17:45.468Z,43.03
2016-07-20T12:18:45.097Z,43
2016-07-20T12:19:45.122Z,43.03
2016-07-20T12:20:45.104Z,43.06
2016-07-20T12:21:44.971Z,43.27
2016-07-20T12:22:46.281Z,43.36
2016-07-20T12:23:45.335Z,43.35
2016-07-20T12:24:45.560Z,43.6
2016-07-20T12:25:44.995Z,43.69
2016-07-20T12:26:45.350Z,43.65
2016-07-20T12:27:46.454Z,43.54
2016-07-20T12:28:45.086Z,43.41
2016-07-20T12:29:45.529Z,43.28
2016-07-20T12:30:45.847Z,43.07
2016-07-20T12:31:45.372Z,42.91
2016-07-20T12:32:45.590Z,42.94
2016-07-20T12:33:45.121Z,43.2
2016-07-20T12:34:45.812Z,43.31
2016-07-20T12:35:45.479Z,43.41
2016-07-20T12:36:45.613Z,43.43
2016-07-20T12:37:46.079Z,43.53
2016-07-20T12:38:45.664Z,43.57
2016-07-20T12:39:46.267Z,43.53
2016-07-20T12:40:45.329Z,43.41
2016-07-20T12:41:45.090Z,43.45
2016-07-20T12:42:45.322Z,43.31
2016-07-20T12:43:45.561Z,43.48
2016-07-20T12:44:45.991Z,43.6
2016-07-20T12:45:45.118Z,43.68
2016-07-20T12:46:45.117Z,43.73
2016-07-20T12:47:45.215Z,43.86
2016-07-20T12:48:45.183Z,43.83
2016-07-20T12:49:45.138Z,43.73
2016-07-20T12:50:45.336Z,43.57
2016-07-20T12:51:45.152Z,43.54
2016-07-20T12:52:45.155Z,43.54
2016-07-20T12:53:45.168Z,43.49
2016-07-20T12:54:45.223Z,43.33
2016-07-20T12:55:45.183Z,43.23
2016-07-20T12:56:45.181Z,43.36